createdAt,value
2018-12-07T00:00:46.453Z,12.93
2018-12-07T00:03:13.926Z,13.20
2018-12-07T00:05:41.998Z,13.10
2018-12-07T00:08:09.507Z,12.80
2018-12-07T00:10:36.999Z,11.77
2018-12-07T00:13:04.530Z,12.93
2018-12-07T00:15:32.089Z,13.20
2018-12-07T00:17:59.570Z,13.27
2018-12-07T00:20:27.106Z,11.77
2018-12-07T00:22:54.618Z,12.13
2018-12-07T00:25:23.010Z,12.27
2018-12-07T00:27:50.529Z,11.93
2018-12-07T00:30:18.006Z,12.83
2018-12-07T00:32:45.505Z,12.00
2018-12-07T00:35:13.083Z,12.13
2018-12-07T00:37:40.594Z,12.57
2018-12-07T00:40:08.078Z,11.60
2018-12-07T00:42:35.566Z,11.83
2018-12-07T00:45:03.252Z,11.67
2018-12-07T00:47:30.739Z,10.53
2018-12-07T00:49:58.233Z,11.30
2018-12-07T00:52:25.801Z,11.13
2018-12-07T00:54:53.361Z,11.13
2018-12-07T00:57:20.865Z,11.43
2018-12-07T00:59:48.392Z,10.83
2018-12-07T01:02:15.902Z,10.87
2018-12-07T01:04:43.504Z,10.27
2018-12-07T01:07:10.988Z,11.20
2018-12-07T01:09:38.486Z,10.33
2018-12-07T01:12:06.317Z,10.20
2018-12-07T01:14:33.851Z,10.63
2018-12-07T01:17:01.346Z,10.63
2018-12-07T01:19:28.845Z,10.07
2018-12-07T01:21:56.342Z,9.67
2018-12-07T01:24:23.897Z,10.07
2018-12-07T01:26:51.382Z,9.33
2018-12-07T01:29:18.866Z,9.93
2018-12-07T01:31:46.350Z,9.33
2018-12-07T01:34:13.856Z,9.80
2018-12-07T01:36:41.395Z,10.17
2018-12-07T01:39:08.934Z,9.23
2018-12-07T01:41:36.494Z,9.67
2018-12-07T01:44:04.197Z,9.20
2018-12-07T01:46:31.732Z,9.10
2018-12-07T01:48:59.241Z,9.63
2018-12-07T01:51:26.716Z,9.60
2018-12-07T01:53:54.216Z,9.23
2018-12-07T01:56:21.702Z,9.37
2018-12-07T01:58:49.236Z,8.77
2018-12-07T02:01:16.792Z,8.53
2018-12-07T02:03:44.353Z,9.30
2018-12-07T02:06:11.841Z,8.23
2018-12-07T02:08:39.421Z,8.90
2018-12-07T02:11:06.899Z,9.60
2018-12-07T02:13:34.397Z,8.37
2018-12-07T02:16:01.891Z,8.90
2018-12-07T02:18:29.402Z,9.10
2018-12-07T02:20:56.972Z,8.07
2018-12-07T02:23:24.440Z,8.87
2018-12-07T02:25:51.949Z,9.27
2018-12-07T02:28:19.425Z,8.57
2018-12-07T02:30:47.025Z,9.00
2018-12-07T02:33:14.571Z,8.47
2018-12-07T02:35:42.138Z,9.13
2018-12-07T02:38:09.743Z,9.00
2018-12-07T02:40:37.231Z,9.23
2018-12-07T02:43:04.825Z,10.10
2018-12-07T02:45:32.348Z,9.67
2018-12-07T02:47:59.864Z,9.43
2018-12-07T02:50:27.406Z,9.43
2018-12-07T02:52:54.871Z,9.67
2018-12-07T02:55:22.418Z,9.67
2018-12-07T02:57:49.971Z,10.30
2018-12-07T03:00:17.493Z,9.60
2018-12-07T03:02:44.957Z,9.13
2018-12-07T03:05:12.464Z,10.43
2018-12-07T03:07:39.955Z,10.03
2018-12-07T03:10:07.589Z,10.37
2018-12-07T03:12:35.101Z,10.13
2018-12-07T03:15:02.826Z,10.20
2018-12-07T03:17:30.320Z,10.20
2018-12-07T03:19:57.833Z,10.10
2018-12-07T03:22:25.336Z,10.50
2018-12-07T03:24:52.830Z,9.60
2018-12-07T03:27:20.426Z,9.70
2018-12-07T03:29:47.910Z,10.43
2018-12-07T03:32:15.417Z,10.30
2018-12-07T03:34:42.938Z,11.43
2018-12-07T03:37:10.475Z,10.80
2018-12-07T03:39:37.962Z,11.60
2018-12-07T03:42:05.475Z,12.00
2018-12-07T03:44:33.053Z,12.33
2018-12-07T03:47:00.557Z,11.57
2018-12-07T03:49:28.067Z,12.93
2018-12-07T03:51:55.626Z,13.10
2018-12-07T03:54:23.174Z,13.10
2018-12-07T03:56:50.709Z,12.87
2018-12-07T03:59:18.193Z,13.23
2018-12-07T04:01:45.683Z,14.23
2018-12-07T04:04:13.211Z,14.10
2018-12-07T04:06:40.770Z,14.57
2018-12-07T04:09:08.260Z,14.57
2018-12-07T04:11:35.782Z,14.60
2018-12-07T04:14:03.680Z,14.57
2018-12-07T04:16:31.158Z,15.53
2018-12-07T04:18:58.680Z,14.20
2018-12-07T04:21:26.135Z,14.93
2018-12-07T04:23:53.626Z,14.73
2018-12-07T04:26:21.106Z,14.63
2018-12-07T04:28:48.600Z,14.47
2018-12-07T04:31:16.073Z,14.20
2018-12-07T04:33:43.642Z,14.73
2018-12-07T04:36:11.136Z,15.17
2018-12-07T04:38:38.642Z,15.30
2018-12-07T04:41:06.196Z,14.53
2018-12-07T04:43:33.686Z,14.27
2018-12-07T04:46:01.181Z,14.90
2018-12-07T04:48:28.689Z,14.80
2018-12-07T04:50:56.263Z,14.33
2018-12-07T04:53:23.821Z,13.87
2018-12-07T04:55:51.367Z,14.23
2018-12-07T04:58:18.938Z,15.10
2018-12-07T05:00:46.470Z,15.57
2018-12-07T05:03:14.042Z,16.97
2018-12-07T05:05:41.555Z,14.73
2018-12-07T05:08:09.066Z,14.67
2018-12-07T05:10:36.554Z,15.63
2018-12-07T05:13:04.105Z,15.80
2018-12-07T05:15:31.625Z,17.10
2018-12-07T05:17:59.099Z,16.27
2018-12-07T05:20:26.613Z,17.67
2018-12-07T05:22:54.094Z,16.23
2018-12-07T05:25:21.612Z,16.17
2018-12-07T05:27:49.332Z,15.60
2018-12-07T05:30:16.878Z,15.90
2018-12-07T05:32:44.534Z,16.80
2018-12-07T05:35:12.164Z,15.30
2018-12-07T05:37:39.639Z,16.23
2018-12-07T05:40:07.145Z,16.93
2018-12-07T05:42:34.654Z,16.33
2018-12-07T05:45:02.253Z,16.90
2018-12-07T05:47:29.855Z,17.07
2018-12-07T05:49:57.378Z,16.20
2018-12-07T05:52:24.869Z,17.00
2018-12-07T05:54:52.417Z,16.40
2018-12-07T05:57:19.908Z,17.03
2018-12-07T05:59:47.505Z,17.57
2018-12-07T06:02:14.991Z,14.93
2018-12-07T06:04:42.473Z,15.30
2018-12-07T06:07:10.014Z,15.33
2018-12-07T06:09:37.559Z,14.70
2018-12-07T06:12:05.052Z,15.27
2018-12-07T06:14:32.616Z,14.00
2018-12-07T06:17:00.233Z,15.50
2018-12-07T06:19:27.733Z,13.47
2018-12-07T06:21:55.299Z,14.20
2018-12-07T06:24:22.944Z,14.23
2018-12-07T06:26:50.520Z,13.57
2018-12-07T06:29:18.002Z,13.90
2018-12-07T06:31:45.494Z,13.70
2018-12-07T06:34:12.990Z,14.00
2018-12-07T06:36:40.593Z,13.63
2018-12-07T06:39:08.215Z,14.30
2018-12-07T06:41:35.781Z,13.60
2018-12-07T06:44:03.358Z,14.47
2018-12-07T06:46:30.972Z,13.50
2018-12-07T06:49:06.902Z,14.93
2018-12-07T06:51:34.417Z,14.93
2018-12-07T06:54:01.979Z,14.00
2018-12-07T06:56:29.567Z,13.03
2018-12-07T06:58:57.159Z,13.20
2018-12-07T07:01:24.663Z,13.20
2018-12-07T07:03:52.173Z,12.33
2018-12-07T07:06:19.662Z,12.63
2018-12-07T07:08:47.137Z,12.23
2018-12-07T07:11:14.624Z,13.80
2018-12-07T07:13:42.143Z,12.93
2018-12-07T07:16:09.715Z,12.40
2018-12-07T07:18:37.221Z,12.57
2018-12-07T07:21:04.714Z,13.00
2018-12-07T07:23:32.205Z,13.63
2018-12-07T07:25:59.690Z,12.93
2018-12-07T07:28:27.218Z,12.17
2018-12-07T07:30:54.704Z,12.50
2018-12-07T07:33:22.197Z,12.23
2018-12-07T07:35:49.720Z,13.00
2018-12-07T07:38:17.214Z,11.23
2018-12-07T07:40:44.707Z,10.43
2018-12-07T07:43:12.536Z,11.17
2018-12-07T07:45:40.058Z,10.83
2018-12-07T07:48:07.562Z,11.40
2018-12-07T07:50:35.070Z,11.13
2018-12-07T07:53:02.619Z,10.90
2018-12-07T07:55:30.106Z,11.23
2018-12-07T07:58:00.000Z,11.27
2018-12-07T08:00:27.585Z,11.23
2018-12-07T08:02:55.118Z,10.90
2018-12-07T08:05:22.679Z,11.30
2018-12-07T08:07:50.193Z,10.80
2018-12-07T08:10:17.695Z,11.23
2018-12-07T08:12:45.188Z,9.87
2018-12-07T08:15:12.679Z,10.90
2018-12-07T08:17:40.178Z,10.70
2018-12-07T08:20:07.674Z,11.00
2018-12-07T08:22:35.347Z,11.00
2018-12-07T08:25:03.150Z,10.23
2018-12-07T08:27:30.663Z,11.00
2018-12-07T08:29:58.169Z,10.57
2018-12-07T08:32:25.681Z,10.53
2018-12-07T08:34:53.202Z,9.90
2018-12-07T08:37:20.683Z,9.57
2018-12-07T08:39:48.178Z,9.03
2018-12-07T08:42:15.666Z,9.20
2018-12-07T08:44:43.245Z,9.40
2018-12-07T08:47:10.883Z,8.97
2018-12-07T08:49:44.215Z,8.77
2018-12-07T08:52:11.705Z,8.30
2018-12-07T08:54:39.222Z,8.40
2018-12-07T08:57:06.785Z,8.93
2018-12-07T08:59:34.271Z,8.80
2018-12-07T09:02:01.865Z,9.17
2018-12-07T09:04:29.512Z,8.27
2018-12-07T09:06:57.041Z,9.20
2018-12-07T09:09:24.526Z,9.20
2018-12-07T09:11:52.065Z,9.40
2018-12-07T09:14:19.735Z,8.07
2018-12-07T09:16:47.259Z,9.00
2018-12-07T09:19:14.735Z,9.50
2018-12-07T09:21:42.238Z,8.43
2018-12-07T09:24:09.716Z,8.57
2018-12-07T09:26:37.204Z,8.63
2018-12-07T09:29:04.767Z,8.03
2018-12-07T09:31:32.255Z,8.17
2018-12-07T09:33:59.812Z,9.07
2018-12-07T09:36:27.310Z,7.20
2018-12-07T09:38:54.797Z,7.33
2018-12-07T09:41:22.298Z,6.67
2018-12-07T09:43:49.941Z,6.50
2018-12-07T09:46:17.495Z,6.80
2018-12-07T09:48:44.994Z,6.03
2018-12-07T09:51:12.493Z,6.67
2018-12-07T09:53:39.974Z,6.10
2018-12-07T09:56:07.528Z,6.97
2018-12-07T09:58:35.055Z,5.63
2018-12-07T10:01:02.658Z,5.77
2018-12-07T10:03:30.138Z,5.27
2018-12-07T10:05:57.677Z,4.90
2018-12-07T10:08:25.163Z,5.60
2018-12-07T10:10:52.642Z,5.73
2018-12-07T10:13:20.158Z,5.47
2018-12-07T10:15:47.725Z,4.73
2018-12-07T10:18:15.287Z,4.57
2018-12-07T10:20:42.821Z,4.30
2018-12-07T10:23:10.341Z,4.80
2018-12-07T10:25:37.817Z,4.30
2018-12-07T10:28:05.319Z,4.73
2018-12-07T10:30:32.804Z,4.40
2018-12-07T10:33:00.291Z,4.30
2018-12-07T10:35:29.470Z,4.40
2018-12-07T10:37:57.411Z,3.80
2018-12-07T10:40:24.894Z,4.20
2018-12-07T10:42:52.415Z,4.00
2018-12-07T10:45:19.895Z,3.90
2018-12-07T10:47:50.423Z,4.00
2018-12-07T10:50:16.939Z,3.90
2018-12-07T10:52:44.498Z,3.90
2018-12-07T10:55:11.976Z,3.67
2018-12-07T10:57:39.515Z,3.30
2018-12-07T11:00:11.501Z,4.07
2018-12-07T11:02:44.655Z,3.80
2018-12-07T11:05:24.650Z,2.90
2018-12-07T11:10:56.552Z,3.40
2018-12-07T11:13:29.859Z,3.40
2018-12-07T11:16:02.930Z,3.20
2018-12-07T11:18:36.327Z,2.67
2018-12-07T11:21:09.607Z,2.90
2018-12-07T11:23:42.891Z,2.70
2018-12-07T11:26:16.073Z,2.83
2018-12-07T11:32:16.740Z,2.20
2018-12-07T11:34:46.491Z,2.30
2018-12-07T11:37:14.031Z,2.30
2018-12-07T11:39:41.507Z,2.13
2018-12-07T11:42:09.050Z,2.30
2018-12-07T11:44:36.726Z,2.33
2018-12-07T11:47:04.376Z,2.17
2018-12-07T11:49:32.369Z,2.10
2018-12-07T11:51:59.905Z,2.40
2018-12-07T11:54:27.463Z,2.20
2018-12-07T11:56:54.946Z,2.10
2018-12-07T11:59:23.013Z,2.23
2018-12-07T12:01:50.550Z,2.30
2018-12-07T12:04:18.057Z,1.90
2018-12-07T12:06:45.578Z,2.30
2018-12-07T12:09:13.063Z,2.13
2018-12-07T12:11:40.551Z,1.90
2018-12-07T12:14:08.037Z,2.17
2018-12-07T12:16:35.608Z,1.90
2018-12-07T12:19:03.165Z,2.10
2018-12-07T12:21:30.722Z,2.40
2018-12-07T12:23:58.194Z,2.20
2018-12-07T12:26:25.943Z,1.97
2018-12-07T12:28:53.449Z,2.20
2018-12-07T12:31:20.936Z,2.40
2018-12-07T12:33:48.417Z,2.17
2018-12-07T12:36:17.238Z,2.40
2018-12-07T12:38:45.111Z,2.00
2018-12-07T12:41:12.604Z,2.20
2018-12-07T12:43:40.168Z,2.43
2018-12-07T12:46:07.710Z,2.40
2018-12-07T12:48:35.192Z,1.87
2018-12-07T12:51:02.673Z,2.43
2018-12-07T12:53:30.281Z,2.43
2018-12-07T12:55:57.755Z,2.00
2018-12-07T12:58:25.267Z,2.03
2018-12-07T13:00:52.762Z,2.20
2018-12-07T13:03:20.405Z,2.43
2018-12-07T13:05:47.969Z,2.10
2018-12-07T13:08:15.519Z,2.53
2018-12-07T13:10:43.091Z,2.70
2018-12-07T13:13:10.577Z,2.37
2018-12-07T13:15:38.169Z,2.67
2018-12-07T13:18:05.674Z,2.93
2018-12-07T13:20:33.232Z,2.80
2018-12-07T13:23:00.872Z,2.80
2018-12-07T13:25:28.367Z,2.30
2018-12-07T13:27:56.189Z,2.50
2018-12-07T13:30:23.677Z,2.53
2018-12-07T13:32:51.237Z,2.70
2018-12-07T13:35:18.836Z,2.73
2018-12-07T13:37:46.486Z,2.87
2018-12-07T13:40:14.064Z,2.20
2018-12-07T13:42:41.672Z,2.40
2018-12-07T13:45:09.428Z,2.70
2018-12-07T13:47:37.196Z,2.93
2018-12-07T13:50:11.200Z,2.80
2018-12-07T13:52:38.919Z,3.00
2018-12-07T13:55:06.518Z,2.90
2018-12-07T13:57:34.175Z,3.40
2018-12-07T14:00:02.256Z,3.33
2018-12-07T14:02:29.855Z,3.03
2018-12-07T14:04:57.572Z,3.63
2018-12-07T14:07:25.240Z,3.37
2018-12-07T14:09:52.912Z,2.80
2018-12-07T14:12:20.522Z,3.00
2018-12-07T14:14:48.352Z,3.30
2018-12-07T14:17:15.933Z,3.20
2018-12-07T14:19:43.536Z,3.00
2018-12-07T14:22:11.165Z,3.00
2018-12-07T14:24:38.844Z,3.27
2018-12-07T14:27:06.538Z,3.67
2018-12-07T14:29:34.331Z,3.77
2018-12-07T14:32:01.977Z,3.73
2018-12-07T14:34:30.350Z,3.40
2018-12-07T14:36:58.099Z,3.07
2018-12-07T14:39:25.699Z,2.90
2018-12-07T14:41:53.262Z,3.50
2018-12-07T14:44:20.752Z,3.70
2018-12-07T14:46:48.307Z,3.23
2018-12-07T14:49:16.390Z,3.60
2018-12-07T14:51:44.105Z,3.57
2018-12-07T14:54:11.719Z,3.53
2018-12-07T14:56:39.516Z,3.70
2018-12-07T14:59:07.321Z,3.50
2018-12-07T15:01:35.003Z,3.67
2018-12-07T15:04:02.628Z,3.93
2018-12-07T15:06:30.300Z,3.20
2018-12-07T15:08:57.965Z,3.20
2018-12-07T15:11:25.605Z,3.83
2018-12-07T15:13:53.208Z,3.50
2018-12-07T15:16:20.827Z,3.37
2018-12-07T15:18:48.423Z,4.07
2018-12-07T15:21:16.133Z,4.47
2018-12-07T15:23:43.704Z,4.30
2018-12-07T15:26:11.531Z,4.50
2018-12-07T15:28:39.157Z,4.37
2018-12-07T15:31:06.733Z,4.93
2018-12-07T15:33:34.508Z,4.93
2018-12-07T15:36:02.272Z,4.17
2018-12-07T15:38:29.974Z,4.17
2018-12-07T15:40:57.689Z,4.43
2018-12-07T15:43:25.256Z,4.30
2018-12-07T15:45:52.886Z,4.60
2018-12-07T15:48:20.512Z,3.80
2018-12-07T15:50:48.126Z,4.53
2018-12-07T15:53:15.815Z,4.80
2018-12-07T15:55:43.493Z,4.77
2018-12-07T15:58:12.967Z,4.60
2018-12-07T16:00:40.562Z,4.73
2018-12-07T16:03:08.231Z,4.70
2018-12-07T16:05:35.830Z,4.10
2018-12-07T16:08:03.628Z,3.87
2018-12-07T16:10:31.272Z,3.90
2018-12-07T16:12:58.947Z,3.90
2018-12-07T16:15:26.848Z,4.10
2018-12-07T16:17:54.583Z,4.10
2018-12-07T16:20:22.199Z,4.30
2018-12-07T16:22:49.743Z,3.60
2018-12-07T16:25:17.298Z,4.40
2018-12-07T16:27:44.840Z,4.43
2018-12-07T16:30:12.592Z,4.20
2018-12-07T16:32:40.364Z,3.90
2018-12-07T16:35:07.909Z,4.00
2018-12-07T16:37:35.615Z,4.40
2018-12-07T16:40:04.527Z,3.90
2018-12-07T16:42:32.258Z,4.33
2018-12-07T16:45:00.022Z,4.10
2018-12-07T16:47:29.302Z,4.80
2018-12-07T16:49:57.406Z,5.03
2018-12-07T16:52:25.274Z,5.20
2018-12-07T16:54:53.160Z,6.13
2018-12-07T16:57:20.926Z,5.30
2018-12-07T16:59:48.963Z,6.00
2018-12-07T17:02:16.674Z,6.27
2018-12-07T17:04:44.323Z,7.87
2018-12-07T17:07:12.170Z,7.43
2018-12-07T17:09:39.927Z,8.00
2018-12-07T17:12:07.887Z,7.33
2018-12-07T17:14:35.646Z,7.50
2018-12-07T17:17:03.267Z,7.40
2018-12-07T17:19:30.906Z,7.13
2018-12-07T17:21:58.475Z,7.20
2018-12-07T17:24:26.196Z,7.03
2018-12-07T17:26:54.056Z,7.43
2018-12-07T17:29:21.685Z,7.00
2018-12-07T17:31:49.459Z,7.23
2018-12-07T17:34:17.040Z,6.67
2018-12-07T17:36:44.661Z,6.97
2018-12-07T17:39:12.371Z,6.10
2018-12-07T17:41:40.175Z,7.77
2018-12-07T17:44:07.862Z,7.07
2018-12-07T17:46:35.592Z,7.53
2018-12-07T17:49:03.305Z,7.07
2018-12-07T17:51:31.107Z,7.20
2018-12-07T17:53:59.057Z,7.27
2018-12-07T17:56:26.916Z,7.70
2018-12-07T17:58:54.665Z,7.10
2018-12-07T18:01:22.318Z,6.87
2018-12-07T18:03:49.792Z,6.20
2018-12-07T18:06:17.449Z,7.40
2018-12-07T18:08:45.100Z,7.83
2018-12-07T18:11:12.749Z,7.73
2018-12-07T18:13:40.574Z,6.90
2018-12-07T18:16:08.171Z,7.40
2018-12-07T18:18:35.654Z,6.40
2018-12-07T18:21:03.408Z,7.57
2018-12-07T18:23:31.139Z,7.20
2018-12-07T18:25:58.785Z,8.43
2018-12-07T18:28:26.682Z,7.20
2018-12-07T18:30:54.571Z,9.33
2018-12-07T18:33:22.250Z,6.80
2018-12-07T18:35:49.858Z,8.30
2018-12-07T18:38:17.664Z,7.60
2018-12-07T18:40:45.386Z,7.40
2018-12-07T18:43:12.935Z,7.90
2018-12-07T18:45:40.611Z,7.57
2018-12-07T18:48:08.322Z,6.70
2018-12-07T18:50:36.109Z,6.10
2018-12-07T18:53:03.771Z,7.63
2018-12-07T18:55:31.495Z,6.93
2018-12-07T18:57:59.920Z,8.23
2018-12-07T19:00:27.618Z,8.00
2018-12-07T19:02:55.355Z,7.67
2018-12-07T19:05:23.106Z,7.90
2018-12-07T19:07:50.854Z,7.33
2018-12-07T19:10:18.629Z,7.30
2018-12-07T19:12:46.218Z,7.03
2018-12-07T19:15:13.949Z,7.33
2018-12-07T19:17:41.579Z,6.20
2018-12-07T19:20:09.708Z,6.63
2018-12-07T19:22:37.452Z,5.40
2018-12-07T19:25:05.878Z,6.00
2018-12-07T19:27:33.536Z,6.50
2018-12-07T19:30:01.209Z,6.00
2018-12-07T19:32:29.125Z,5.43
2018-12-07T19:34:56.786Z,5.90
2018-12-07T19:37:24.517Z,5.40
2018-12-07T19:39:52.118Z,5.43
2018-12-07T19:42:19.763Z,6.37
2018-12-07T19:44:47.486Z,5.50
2018-12-07T19:47:15.420Z,5.80
2018-12-07T19:49:43.062Z,5.90
2018-12-07T19:52:10.851Z,5.80
2018-12-07T19:54:38.591Z,6.67
2018-12-07T19:57:06.220Z,5.70
2018-12-07T19:59:33.896Z,5.30
2018-12-07T20:02:01.725Z,5.80
2018-12-07T20:04:29.447Z,5.80
2018-12-07T20:06:57.036Z,6.13
2018-12-07T20:09:24.615Z,5.37
2018-12-07T20:11:52.173Z,6.00
2018-12-07T20:14:19.895Z,5.63
2018-12-07T20:16:47.668Z,6.60
2018-12-07T20:19:15.673Z,6.90
2018-12-07T20:21:43.315Z,7.43
2018-12-07T20:24:11.086Z,6.40
2018-12-07T20:26:38.826Z,6.80
2018-12-07T20:29:06.569Z,6.37
2018-12-07T20:31:34.058Z,7.13
2018-12-07T20:34:01.607Z,7.00
2018-12-07T20:36:29.192Z,6.67
2018-12-07T20:38:56.860Z,6.27
2018-12-07T20:41:24.721Z,6.20
2018-12-07T20:43:53.919Z,6.23
2018-12-07T20:46:22.023Z,6.60
2018-12-07T20:48:49.869Z,7.53
2018-12-07T20:51:17.510Z,6.33
2018-12-07T20:53:45.269Z,5.80
2018-12-07T20:56:13.074Z,6.17
2018-12-07T20:58:40.848Z,5.60
2018-12-07T21:01:08.697Z,5.67
2018-12-07T21:03:47.613Z,5.60
2018-12-07T21:09:30.881Z,4.27
2018-12-07T21:12:02.406Z,4.70
2018-12-07T21:14:32.180Z,4.67
2018-12-07T21:17:05.182Z,3.77
2018-12-07T21:19:34.153Z,4.20
2018-12-07T21:22:01.893Z,3.40
2018-12-07T21:24:29.710Z,2.87
2018-12-07T21:26:57.676Z,3.27
2018-12-07T21:29:25.315Z,3.10
2018-12-07T21:31:56.271Z,2.87
2018-12-07T21:34:31.375Z,2.77
2018-12-07T21:36:59.020Z,2.63
2018-12-07T21:39:26.690Z,2.10
2018-12-07T21:41:54.419Z,2.03
2018-12-07T21:44:21.989Z,3.40
2018-12-07T21:46:49.668Z,1.70
2018-12-07T21:49:17.453Z,1.57
2018-12-07T21:51:49.669Z,1.50
2018-12-07T21:54:17.458Z,1.67
2018-12-07T21:56:45.073Z,1.60
2018-12-07T21:59:12.559Z,1.33
2018-12-07T22:01:40.073Z,1.80
2018-12-07T22:04:07.842Z,1.40
2018-12-07T22:06:35.679Z,1.50
2018-12-07T22:09:05.112Z,1.27
2018-12-07T22:11:32.873Z,1.60
2018-12-07T22:14:00.613Z,1.60
2018-12-07T22:16:28.217Z,2.07
2018-12-07T22:18:56.102Z,1.40
2018-12-07T22:21:23.934Z,1.20
2018-12-07T22:23:51.680Z,1.60
2018-12-07T22:26:19.302Z,1.57
2018-12-07T22:28:47.163Z,1.90
2018-12-07T22:31:14.810Z,1.90
2018-12-07T22:33:42.667Z,1.33
2018-12-07T22:36:10.624Z,1.40
2018-12-07T22:38:38.339Z,1.43
2018-12-07T22:41:06.110Z,1.20
2018-12-07T22:43:33.794Z,1.67
2018-12-07T22:46:01.482Z,1.27
2018-12-07T22:48:29.017Z,1.20
2018-12-07T22:50:56.540Z,1.10
2018-12-07T22:53:24.071Z,1.20
2018-12-07T22:55:51.615Z,1.30
2018-12-07T22:58:19.121Z,1.10
2018-12-07T23:00:47.958Z,1.10
2018-12-07T23:03:15.478Z,1.37
2018-12-07T23:05:42.944Z,1.30
2018-12-07T23:08:10.469Z,1.37
2018-12-07T23:10:37.944Z,1.07
2018-12-07T23:13:05.507Z,1.80
2018-12-07T23:15:33.047Z,1.40
2018-12-07T23:18:00.550Z,1.40
2018-12-07T23:20:28.078Z,1.20
2018-12-07T23:22:56.302Z,0.83
2018-12-07T23:25:23.812Z,1.30
2018-12-07T23:27:51.358Z,1.20
2018-12-07T23:30:18.830Z,1.17
2018-12-07T23:32:46.377Z,1.10
2018-12-07T23:35:13.947Z,1.20
2018-12-07T23:37:41.418Z,1.30
2018-12-07T23:40:08.933Z,1.00
2018-12-07T23:42:36.550Z,1.00
2018-12-07T23:45:04.606Z,1.00
2018-12-07T23:47:32.128Z,1.00
2018-12-07T23:49:59.663Z,0.93
2018-12-07T23:52:27.191Z,0.90
2018-12-07T23:54:54.671Z,1.00
2018-12-07T23:57:22.359Z,1.30
2018-12-07T23:59:49.849Z,1.20
